sensor_id;sensor_type;location;lat;lon;timestamp;P1;durP1;ratioP1;P2;durP2;ratioP2
9007;SDS011;62813;51.424;6.762;2022-11-20T00:01:17;19.00;;;14.80;;
9007;SDS011;62813;51.424;6.762;2022-11-20T00:03:45;20.53;;;14.30;;
9007;SDS011;62813;51.424;6.762;2022-11-20T00:06:13;18.90;;;14.27;;
9007;SDS011;62813;51.424;6.762;2022-11-20T00:08:41;18.07;;;13.37;;
9007;SDS011;62813;51.424;6.762;2022-11-20T00:11:11;18.77;;;13.00;;
9007;SDS011;62813;51.424;6.762;2022-11-20T00:13:44;19.27;;;14.50;;
9007;SDS011;62813;51.424;6.762;2022-11-20T00:16:12;19.87;;;14.97;;
9007;SDS011;62813;51.424;6.762;2022-11-20T00:18:40;16.37;;;13.37;;
9007;SDS011;62813;51.424;6.762;2022-11-20T00:21:12;19.33;;;13.13;;
9007;SDS011;62813;51.424;6.762;2022-11-20T00:23:41;19.23;;;13.70;;
9007;SDS011;62813;51.424;6.762;2022-11-20T00:26:12;17.43;;;14.30;;
9007;SDS011;62813;51.424;6.762;2022-11-20T00:28:41;20.37;;;14.23;;
9007;SDS011;62813;51.424;6.762;2022-11-20T00:31:10;18.23;;;14.10;;
9007;SDS011;62813;51.424;6.762;2022-11-20T00:33:37;18.13;;;14.50;;
9007;SDS011;62813;51.424;6.762;2022-11-20T00:36:07;21.30;;;14.03;;
9007;SDS011;62813;51.424;6.762;2022-11-20T00:38:35;18.93;;;14.10;;
9007;SDS011;62813;51.424;6.762;2022-11-20T00:41:03;20.53;;;15.00;;
9007;SDS011;62813;51.424;6.762;2022-11-20T00:43:31;22.47;;;14.23;;
9007;SDS011;62813;51.424;6.762;2022-11-20T00:46:02;21.70;;;14.40;;
9007;SDS011;62813;51.424;6.762;2022-11-20T00:48:32;20.37;;;14.90;;
9007;SDS011;62813;51.424;6.762;2022-11-20T00:50:59;20.97;;;15.23;;
9007;SDS011;62813;51.424;6.762;2022-11-20T00:53:25;19.53;;;14.70;;
9007;SDS011;62813;51.424;6.762;2022-11-20T00:56:02;21.50;;;16.03;;
9007;SDS011;62813;51.424;6.762;2022-11-20T00:58:34;20.03;;;14.33;;
9007;SDS011;62813;51.424;6.762;2022-11-20T01:01:09;18.67;;;14.70;;
9007;SDS011;62813;51.424;6.762;2022-11-20T01:03:48;21.67;;;14.97;;
9007;SDS011;62813;51.424;6.762;2022-11-20T01:06:20;20.90;;;15.37;;
9007;SDS011;62813;51.424;6.762;2022-11-20T01:08:53;19.50;;;14.47;;
9007;SDS011;62813;51.424;6.762;2022-11-20T01:11:24;20.93;;;15.80;;
9007;SDS011;62813;51.424;6.762;2022-11-20T01:13:53;19.00;;;14.70;;
9007;SDS011;62813;51.424;6.762;2022-11-20T01:16:22;19.70;;;14.83;;
9007;SDS011;62813;51.424;6.762;2022-11-20T01:18:54;21.20;;;14.93;;
9007;SDS011;62813;51.424;6.762;2022-11-20T01:21:27;20.80;;;15.50;;
9007;SDS011;62813;51.424;6.762;2022-11-20T01:24:01;21.47;;;16.10;;
9007;SDS011;62813;51.424;6.762;2022-11-20T01:26:29;20.50;;;15.63;;
9007;SDS011;62813;51.424;6.762;2022-11-20T01:28:57;19.40;;;14.67;;
9007;SDS011;62813;51.424;6.762;2022-11-20T01:31:29;22.60;;;15.43;;
9007;SDS011;62813;51.424;6.762;2022-11-20T01:33:59;21.27;;;15.10;;
9007;SDS011;62813;51.424;6.762;2022-11-20T01:36:28;21.20;;;14.80;;
9007;SDS011;62813;51.424;6.762;2022-11-20T01:38:57;20.97;;;14.90;;
9007;SDS011;62813;51.424;6.762;2022-11-20T01:41:26;19.13;;;15.03;;
9007;SDS011;62813;51.424;6.762;2022-11-20T01:44:14;19.63;;;15.17;;
9007;SDS011;62813;51.424;6.762;2022-11-20T01:46:55;20.13;;;15.00;;
9007;SDS011;62813;51.424;6.762;2022-11-20T01:49:37;23.80;;;14.43;;
9007;SDS011;62813;51.424;6.762;2022-11-20T01:52:12;19.83;;;14.70;;
9007;SDS011;62813;51.424;6.762;2022-11-20T01:55:08;19.80;;;14.33;;
9007;SDS011;62813;51.424;6.762;2022-11-20T01:57:35;21.40;;;15.60;;
9007;SDS011;62813;51.424;6.762;2022-11-20T02:00:08;20.27;;;14.47;;
9007;SDS011;62813;51.424;6.762;2022-11-20T02:02:37;18.57;;;14.07;;
9007;SDS011;62813;51.424;6.762;2022-11-20T02:05:17;19.23;;;13.53;;
9007;SDS011;62813;51.424;6.762;2022-11-20T02:07:49;21.27;;;15.23;;
9007;SDS011;62813;51.424;6.762;2022-11-20T02:10:16;21.10;;;15.57;;
9007;SDS011;62813;51.424;6.762;2022-11-20T02:12:43;17.63;;;14.63;;
9007;SDS011;62813;51.424;6.762;2022-11-20T02:15:29;19.27;;;14.87;;
9007;SDS011;62813;51.424;6.762;2022-11-20T02:17:58;20.53;;;14.87;;
9007;SDS011;62813;51.424;6.762;2022-11-20T02:20:24;20.57;;;15.07;;
9007;SDS011;62813;51.424;6.762;2022-11-20T02:22:59;18.63;;;14.73;;
9007;SDS011;62813;51.424;6.762;2022-11-20T02:25:36;21.50;;;15.17;;
9007;SDS011;62813;51.424;6.762;2022-11-20T02:28:04;21.23;;;15.70;;
9007;SDS011;62813;51.424;6.762;2022-11-20T02:30:31;19.27;;;15.00;;
9007;SDS011;62813;51.424;6.762;2022-11-20T02:32:58;19.73;;;15.10;;
9007;SDS011;62813;51.424;6.762;2022-11-20T02:37:52;20.63;;;14.97;;
9007;SDS011;62813;51.424;6.762;2022-11-20T02:40:21;21.13;;;15.57;;
9007;SDS011;62813;51.424;6.762;2022-11-20T02:42:51;21.10;;;16.13;;
9007;SDS011;62813;51.424;6.762;2022-11-20T02:45:21;20.00;;;15.30;;
9007;SDS011;62813;51.424;6.762;2022-11-20T02:47:48;19.90;;;15.10;;
9007;SDS011;62813;51.424;6.762;2022-11-20T02:50:15;19.87;;;14.80;;
9007;SDS011;62813;51.424;6.762;2022-11-20T02:52:42;25.80;;;16.03;;
9007;SDS011;62813;51.424;6.762;2022-11-20T02:55:09;20.17;;;14.57;;
9007;SDS011;62813;51.424;6.762;2022-11-20T02:57:36;21.03;;;15.17;;
9007;SDS011;62813;51.424;6.762;2022-11-20T03:00:03;20.97;;;15.53;;
9007;SDS011;62813;51.424;6.762;2022-11-20T03:02:30;21.40;;;15.97;;
9007;SDS011;62813;51.424;6.762;2022-11-20T03:04:58;17.83;;;15.10;;
9007;SDS011;62813;51.424;6.762;2022-11-20T03:07:25;19.93;;;15.47;;
9007;SDS011;62813;51.424;6.762;2022-11-20T03:09:51;19.53;;;15.10;;
9007;SDS011;62813;51.424;6.762;2022-11-20T03:12:18;21.77;;;16.33;;
9007;SDS011;62813;51.424;6.762;2022-11-20T03:14:44;21.13;;;15.60;;
9007;SDS011;62813;51.424;6.762;2022-11-20T03:17:17;21.87;;;15.30;;
9007;SDS011;62813;51.424;6.762;2022-11-20T03:19:44;20.13;;;15.43;;
9007;SDS011;62813;51.424;6.762;2022-11-20T03:22:10;19.60;;;14.50;;
9007;SDS011;62813;51.424;6.762;2022-11-20T03:24:37;22.50;;;16.53;;
9007;SDS011;62813;51.424;6.762;2022-11-20T03:27:03;18.37;;;14.33;;
9007;SDS011;62813;51.424;6.762;2022-11-20T03:29:30;19.10;;;16.13;;
9007;SDS011;62813;51.424;6.762;2022-11-20T03:31:56;20.83;;;14.77;;
9007;SDS011;62813;51.424;6.762;2022-11-20T03:34:23;20.57;;;14.97;;
9007;SDS011;62813;51.424;6.762;2022-11-20T03:36:50;21.17;;;15.57;;
9007;SDS011;62813;51.424;6.762;2022-11-20T03:39:16;19.30;;;14.23;;
9007;SDS011;62813;51.424;6.762;2022-11-20T03:41:43;18.17;;;14.57;;
9007;SDS011;62813;51.424;6.762;2022-11-20T03:44:10;20.93;;;16.00;;
9007;SDS011;62813;51.424;6.762;2022-11-20T03:46:37;18.43;;;15.37;;
9007;SDS011;62813;51.424;6.762;2022-11-20T03:49:04;19.83;;;15.47;;
9007;SDS011;62813;51.424;6.762;2022-11-20T03:51:32;20.73;;;15.90;;
9007;SDS011;62813;51.424;6.762;2022-11-20T03:54:02;20.43;;;15.70;;
9007;SDS011;62813;51.424;6.762;2022-11-20T03:56:31;21.43;;;14.20;;
9007;SDS011;62813;51.424;6.762;2022-11-20T03:58:59;21.13;;;15.87;;
9007;SDS011;62813;51.424;6.762;2022-11-20T04:01:30;20.27;;;15.87;;
9007;SDS011;62813;51.424;6.762;2022-11-20T04:03:58;24.13;;;16.77;;
9007;SDS011;62813;51.424;6.762;2022-11-20T04:06:29;22.53;;;16.63;;
9007;SDS011;62813;51.424;6.762;2022-11-20T04:08:59;21.60;;;16.33;;
9007;SDS011;62813;51.424;6.762;2022-11-20T04:11:29;22.50;;;16.30;;
9007;SDS011;62813;51.424;6.762;2022-11-20T04:13:58;21.60;;;17.17;;
9007;SDS011;62813;51.424;6.762;2022-11-20T04:16:28;21.17;;;15.93;;
9007;SDS011;62813;51.424;6.762;2022-11-20T04:18:56;23.97;;;18.07;;
9007;SDS011;62813;51.424;6.762;2022-11-20T04:21:24;29.17;;;17.50;;
9007;SDS011;62813;51.424;6.762;2022-11-20T04:23:52;23.13;;;17.80;;
9007;SDS011;62813;51.424;6.762;2022-11-20T04:26:20;21.53;;;16.80;;
9007;SDS011;62813;51.424;6.762;2022-11-20T04:28:48;21.73;;;16.33;;
9007;SDS011;62813;51.424;6.762;2022-11-20T04:31:15;19.80;;;16.40;;
9007;SDS011;62813;51.424;6.762;2022-11-20T04:33:43;20.60;;;14.90;;
9007;SDS011;62813;51.424;6.762;2022-11-20T04:36:20;20.20;;;15.10;;
9007;SDS011;62813;51.424;6.762;2022-11-20T04:38:52;21.40;;;16.30;;
9007;SDS011;62813;51.424;6.762;2022-11-20T04:41:23;22.03;;;16.00;;
9007;SDS011;62813;51.424;6.762;2022-11-20T04:43:52;21.23;;;15.83;;
9007;SDS011;62813;51.424;6.762;2022-11-20T04:46:26;17.37;;;14.80;;
9007;SDS011;62813;51.424;6.762;2022-11-20T04:48:53;21.07;;;15.30;;
9007;SDS011;62813;51.424;6.762;2022-11-20T04:51:20;21.13;;;15.33;;
9007;SDS011;62813;51.424;6.762;2022-11-20T04:53:47;19.37;;;15.63;;
9007;SDS011;62813;51.424;6.762;2022-11-20T04:56:14;21.03;;;15.57;;
9007;SDS011;62813;51.424;6.762;2022-11-20T04:58:41;23.67;;;16.90;;
9007;SDS011;62813;51.424;6.762;2022-11-20T05:01:12;21.40;;;16.57;;
9007;SDS011;62813;51.424;6.762;2022-11-20T05:03:41;24.10;;;17.23;;
9007;SDS011;62813;51.424;6.762;2022-11-20T05:06:10;24.80;;;18.53;;
9007;SDS011;62813;51.424;6.762;2022-11-20T05:08:38;24.23;;;18.63;;
9007;SDS011;62813;51.424;6.762;2022-11-20T05:11:06;24.00;;;17.93;;
9007;SDS011;62813;51.424;6.762;2022-11-20T05:13:34;23.20;;;18.20;;
9007;SDS011;62813;51.424;6.762;2022-11-20T05:16:02;25.40;;;19.03;;
9007;SDS011;62813;51.424;6.762;2022-11-20T05:18:30;28.30;;;20.23;;
9007;SDS011;62813;51.424;6.762;2022-11-20T05:20:57;28.83;;;20.10;;
9007;SDS011;62813;51.424;6.762;2022-11-20T05:23:24;27.53;;;20.97;;
9007;SDS011;62813;51.424;6.762;2022-11-20T05:25:53;25.73;;;20.67;;
9007;SDS011;62813;51.424;6.762;2022-11-20T05:28:24;29.47;;;21.43;;
9007;SDS011;62813;51.424;6.762;2022-11-20T05:30:52;28.57;;;21.13;;
9007;SDS011;62813;51.424;6.762;2022-11-20T05:33:18;27.87;;;21.90;;
9007;SDS011;62813;51.424;6.762;2022-11-20T05:35:45;28.60;;;22.43;;
9007;SDS011;62813;51.424;6.762;2022-11-20T05:38:11;29.37;;;20.87;;
9007;SDS011;62813;51.424;6.762;2022-11-20T05:40:38;24.90;;;20.53;;
9007;SDS011;62813;51.424;6.762;2022-11-20T05:43:05;27.17;;;20.30;;
9007;SDS011;62813;51.424;6.762;2022-11-20T05:45:31;26.67;;;20.70;;
9007;SDS011;62813;51.424;6.762;2022-11-20T05:47:58;28.23;;;21.00;;
9007;SDS011;62813;51.424;6.762;2022-11-20T05:50:29;28.40;;;20.57;;
9007;SDS011;62813;51.424;6.762;2022-11-20T05:52:59;26.03;;;20.10;;
9007;SDS011;62813;51.424;6.762;2022-11-20T05:55:26;27.07;;;20.00;;
9007;SDS011;62813;51.424;6.762;2022-11-20T05:57:53;27.03;;;20.27;;
9007;SDS011;62813;51.424;6.762;2022-11-20T06:00:21;24.67;;;19.23;;
9007;SDS011;62813;51.424;6.762;2022-11-20T06:02:48;27.97;;;19.27;;
9007;SDS011;62813;51.424;6.762;2022-11-20T06:05:15;25.13;;;19.47;;
9007;SDS011;62813;51.424;6.762;2022-11-20T06:07:41;25.53;;;19.47;;
9007;SDS011;62813;51.424;6.762;2022-11-20T06:10:08;28.57;;;20.30;;
9007;SDS011;62813;51.424;6.762;2022-11-20T06:12:35;26.73;;;19.50;;
9007;SDS011;62813;51.424;6.762;2022-11-20T06:15:01;24.73;;;19.70;;
9007;SDS011;62813;51.424;6.762;2022-11-20T06:17:28;25.87;;;19.03;;
9007;SDS011;62813;51.424;6.762;2022-11-20T06:19:55;23.60;;;18.17;;
9007;SDS011;62813;51.424;6.762;2022-11-20T06:22:21;25.70;;;20.20;;
9007;SDS011;62813;51.424;6.762;2022-11-20T06:24:48;26.93;;;20.57;;
9007;SDS011;62813;51.424;6.762;2022-11-20T06:27:15;25.10;;;19.67;;
9007;SDS011;62813;51.424;6.762;2022-11-20T06:29:42;26.43;;;20.50;;
9007;SDS011;62813;51.424;6.762;2022-11-20T06:32:08;24.70;;;19.80;;
9007;SDS011;62813;51.424;6.762;2022-11-20T06:34:35;26.50;;;19.93;;
9007;SDS011;62813;51.424;6.762;2022-11-20T06:37:01;26.80;;;19.80;;
9007;SDS011;62813;51.424;6.762;2022-11-20T06:39:28;26.47;;;19.30;;
9007;SDS011;62813;51.424;6.762;2022-11-20T06:41:54;27.53;;;20.37;;
9007;SDS011;62813;51.424;6.762;2022-11-20T06:44:24;27.20;;;19.53;;
9007;SDS011;62813;51.424;6.762;2022-11-20T06:46:51;26.13;;;20.00;;
9007;SDS011;62813;51.424;6.762;2022-11-20T06:49:18;25.77;;;19.00;;
9007;SDS011;62813;51.424;6.762;2022-11-20T06:51:44;27.20;;;21.30;;
9007;SDS011;62813;51.424;6.762;2022-11-20T06:54:12;27.20;;;20.53;;
9007;SDS011;62813;51.424;6.762;2022-11-20T06:56:38;29.50;;;20.13;;
9007;SDS011;62813;51.424;6.762;2022-11-20T06:59:06;26.50;;;20.80;;
9007;SDS011;62813;51.424;6.762;2022-11-20T07:01:33;26.63;;;20.00;;
9007;SDS011;62813;51.424;6.762;2022-11-20T07:03:59;27.60;;;20.33;;
9007;SDS011;62813;51.424;6.762;2022-11-20T07:06:26;28.33;;;20.10;;
9007;SDS011;62813;51.424;6.762;2022-11-20T07:08:52;25.70;;;19.50;;
9007;SDS011;62813;51.424;6.762;2022-11-20T07:11:19;25.00;;;20.20;;
9007;SDS011;62813;51.424;6.762;2022-11-20T07:13:45;27.20;;;19.80;;
9007;SDS011;62813;51.424;6.762;2022-11-20T07:16:12;30.07;;;21.47;;
9007;SDS011;62813;51.424;6.762;2022-11-20T07:18:38;24.83;;;19.63;;
9007;SDS011;62813;51.424;6.762;2022-11-20T07:21:06;23.27;;;18.17;;
9007;SDS011;62813;51.424;6.762;2022-11-20T07:23:34;25.70;;;19.83;;
9007;SDS011;62813;51.424;6.762;2022-11-20T07:26:05;29.83;;;20.53;;
9007;SDS011;62813;51.424;6.762;2022-11-20T07:28:32;25.83;;;19.77;;
9007;SDS011;62813;51.424;6.762;2022-11-20T07:31:00;26.93;;;20.30;;
9007;SDS011;62813;51.424;6.762;2022-11-20T07:33:27;27.30;;;19.03;;
9007;SDS011;62813;51.424;6.762;2022-11-20T07:35:53;26.67;;;19.13;;
9007;SDS011;62813;51.424;6.762;2022-11-20T07:38:20;26.40;;;19.37;;
9007;SDS011;62813;51.424;6.762;2022-11-20T07:40:47;27.33;;;19.83;;
9007;SDS011;62813;51.424;6.762;2022-11-20T07:43:13;25.73;;;19.17;;
9007;SDS011;62813;51.424;6.762;2022-11-20T07:45:39;26.97;;;19.07;;
9007;SDS011;62813;51.424;6.762;2022-11-20T07:48:06;24.93;;;19.93;;
9007;SDS011;62813;51.424;6.762;2022-11-20T07:50:33;25.43;;;19.00;;
9007;SDS011;62813;51.424;6.762;2022-11-20T07:53:03;27.83;;;20.03;;
9007;SDS011;62813;51.424;6.762;2022-11-20T07:55:31;27.47;;;19.93;;
9007;SDS011;62813;51.424;6.762;2022-11-20T07:57:58;25.70;;;19.40;;
9007;SDS011;62813;51.424;6.762;2022-11-20T08:00:25;25.20;;;20.73;;
9007;SDS011;62813;51.424;6.762;2022-11-20T08:02:52;24.67;;;18.27;;
9007;SDS011;62813;51.424;6.762;2022-11-20T08:05:19;22.80;;;18.17;;
9007;SDS011;62813;51.424;6.762;2022-11-20T08:07:47;22.23;;;17.40;;
9007;SDS011;62813;51.424;6.762;2022-11-20T08:10:14;23.07;;;17.93;;
9007;SDS011;62813;51.424;6.762;2022-11-20T08:15:40;26.40;;;19.93;;
9007;SDS011;62813;51.424;6.762;2022-11-20T08:18:10;24.67;;;18.77;;
9007;SDS011;62813;51.424;6.762;2022-11-20T08:20:58;27.87;;;20.87;;
9007;SDS011;62813;51.424;6.762;2022-11-20T08:23:27;27.57;;;20.43;;
9007;SDS011;62813;51.424;6.762;2022-11-20T08:25:54;25.20;;;19.80;;
9007;SDS011;62813;51.424;6.762;2022-11-20T08:28:20;20.60;;;16.30;;
9007;SDS011;62813;51.424;6.762;2022-11-20T08:30:48;26.70;;;19.73;;
9007;SDS011;62813;51.424;6.762;2022-11-20T08:33:17;26.77;;;18.37;;
9007;SDS011;62813;51.424;6.762;2022-11-20T08:35:44;22.53;;;18.00;;
9007;SDS011;62813;51.424;6.762;2022-11-20T08:38:10;23.93;;;18.30;;
9007;SDS011;62813;51.424;6.762;2022-11-20T08:40:37;26.03;;;19.10;;
9007;SDS011;62813;51.424;6.762;2022-11-20T08:43:03;22.93;;;17.93;;
9007;SDS011;62813;51.424;6.762;2022-11-20T08:45:30;24.23;;;19.73;;
9007;SDS011;62813;51.424;6.762;2022-11-20T08:48:01;24.10;;;18.33;;
9007;SDS011;62813;51.424;6.762;2022-11-20T08:50:28;24.97;;;18.67;;
9007;SDS011;62813;51.424;6.762;2022-11-20T08:53:05;26.83;;;18.23;;
9007;SDS011;62813;51.424;6.762;2022-11-20T08:55:31;21.23;;;17.20;;
9007;SDS011;62813;51.424;6.762;2022-11-20T08:58:02;25.53;;;19.13;;
9007;SDS011;62813;51.424;6.762;2022-11-20T09:00:29;24.43;;;17.87;;
9007;SDS011;62813;51.424;6.762;2022-11-20T09:02:56;23.63;;;17.67;;
9007;SDS011;62813;51.424;6.762;2022-11-20T09:05:23;22.60;;;17.90;;
9007;SDS011;62813;51.424;6.762;2022-11-20T09:07:50;24.20;;;17.73;;
9007;SDS011;62813;51.424;6.762;2022-11-20T09:10:16;24.67;;;17.47;;
9007;SDS011;62813;51.424;6.762;2022-11-20T09:12:51;22.37;;;18.20;;
9007;SDS011;62813;51.424;6.762;2022-11-20T09:15:18;21.97;;;17.70;;
9007;SDS011;62813;51.424;6.762;2022-11-20T09:17:59;24.63;;;17.63;;
9007;SDS011;62813;51.424;6.762;2022-11-20T09:20:31;23.13;;;17.23;;
9007;SDS011;62813;51.424;6.762;2022-11-20T09:22:58;21.83;;;17.03;;
9007;SDS011;62813;51.424;6.762;2022-11-20T09:25:24;20.97;;;16.23;;
9007;SDS011;62813;51.424;6.762;2022-11-20T09:27:57;21.97;;;16.83;;
9007;SDS011;62813;51.424;6.762;2022-11-20T09:30:26;23.90;;;16.77;;
9007;SDS011;62813;51.424;6.762;2022-11-20T09:32:53;21.93;;;16.50;;
9007;SDS011;62813;51.424;6.762;2022-11-20T09:35:20;23.70;;;16.83;;
9007;SDS011;62813;51.424;6.762;2022-11-20T09:37:46;21.27;;;17.67;;
9007;SDS011;62813;51.424;6.762;2022-11-20T09:40:17;22.27;;;16.57;;
9007;SDS011;62813;51.424;6.762;2022-11-20T09:48:21;22.20;;;15.33;;
9007;SDS011;62813;51.424;6.762;2022-11-20T09:51:58;22.43;;;15.40;;
9007;SDS011;62813;51.424;6.762;2022-11-20T09:56:55;21.13;;;16.97;;
9007;SDS011;62813;51.424;6.762;2022-11-20T09:59:45;21.53;;;16.60;;
9007;SDS011;62813;51.424;6.762;2022-11-20T10:02:19;20.27;;;15.90;;
9007;SDS011;62813;51.424;6.762;2022-11-20T10:05:08;23.30;;;16.40;;
9007;SDS011;62813;51.424;6.762;2022-11-20T10:10:34;22.43;;;16.30;;
9007;SDS011;62813;51.424;6.762;2022-11-20T10:18:39;22.97;;;17.37;;
9007;SDS011;62813;51.424;6.762;2022-11-20T10:23:58;21.37;;;15.97;;
9007;SDS011;62813;51.424;6.762;2022-11-20T10:26:44;27.53;;;17.93;;
9007;SDS011;62813;51.424;6.762;2022-11-20T10:29:21;23.93;;;17.77;;
9007;SDS011;62813;51.424;6.762;2022-11-20T10:32:17;24.13;;;17.23;;
9007;SDS011;62813;51.424;6.762;2022-11-20T10:35:05;21.23;;;17.13;;
9007;SDS011;62813;51.424;6.762;2022-11-20T10:37:40;27.10;;;18.50;;
9007;SDS011;62813;51.424;6.762;2022-11-20T10:43:26;21.10;;;17.73;;
9007;SDS011;62813;51.424;6.762;2022-11-20T10:45:58;22.43;;;16.37;;
9007;SDS011;62813;51.424;6.762;2022-11-20T10:48:30;19.67;;;15.90;;
9007;SDS011;62813;51.424;6.762;2022-11-20T10:51:01;20.13;;;15.73;;
9007;SDS011;62813;51.424;6.762;2022-11-20T10:53:40;19.03;;;15.20;;
9007;SDS011;62813;51.424;6.762;2022-11-20T10:56:20;24.10;;;17.27;;
9007;SDS011;62813;51.424;6.762;2022-11-20T11:02:16;20.33;;;16.17;;
9007;SDS011;62813;51.424;6.762;2022-11-20T11:04:49;21.03;;;16.23;;
9007;SDS011;62813;51.424;6.762;2022-11-20T11:07:35;20.30;;;15.53;;
9007;SDS011;62813;51.424;6.762;2022-11-20T11:13:18;19.87;;;15.23;;
9007;SDS011;62813;51.424;6.762;2022-11-20T11:15:46;18.60;;;15.53;;
9007;SDS011;62813;51.424;6.762;2022-11-20T11:18:22;19.77;;;15.47;;
9007;SDS011;62813;51.424;6.762;2022-11-20T11:20:53;24.30;;;15.93;;
9007;SDS011;62813;51.424;6.762;2022-11-20T11:25:59;18.50;;;14.53;;
9007;SDS011;62813;51.424;6.762;2022-11-20T11:28:27;19.13;;;14.63;;
9007;SDS011;62813;51.424;6.762;2022-11-20T11:30:54;18.77;;;14.40;;
9007;SDS011;62813;51.424;6.762;2022-11-20T11:33:23;19.70;;;15.00;;
9007;SDS011;62813;51.424;6.762;2022-11-20T11:35:55;16.70;;;13.70;;
9007;SDS011;62813;51.424;6.762;2022-11-20T11:38:43;22.07;;;14.47;;
9007;SDS011;62813;51.424;6.762;2022-11-20T11:41:18;19.10;;;14.87;;
9007;SDS011;62813;51.424;6.762;2022-11-20T11:43:51;18.83;;;14.37;;
9007;SDS011;62813;51.424;6.762;2022-11-20T11:46:38;21.03;;;14.83;;
9007;SDS011;62813;51.424;6.762;2022-11-20T11:54:53;19.67;;;14.77;;
9007;SDS011;62813;51.424;6.762;2022-11-20T12:00:13;18.80;;;14.33;;
9007;SDS011;62813;51.424;6.762;2022-11-20T12:07:50;21.97;;;15.73;;
9007;SDS011;62813;51.424;6.762;2022-11-20T12:10:33;19.30;;;13.77;;
9007;SDS011;62813;51.424;6.762;2022-11-20T12:15:56;23.17;;;15.37;;
9007;SDS011;62813;51.424;6.762;2022-11-20T12:18:22;21.83;;;14.57;;
9007;SDS011;62813;51.424;6.762;2022-11-20T12:26:27;22.50;;;15.63;;
9007;SDS011;62813;51.424;6.762;2022-11-20T12:31:52;21.30;;;15.27;;
9007;SDS011;62813;51.424;6.762;2022-11-20T12:39:49;22.63;;;15.67;;
9007;SDS011;62813;51.424;6.762;2022-11-20T12:57:04;21.53;;;15.00;;
9007;SDS011;62813;51.424;6.762;2022-11-20T13:05:37;24.33;;;15.60;;
9007;SDS011;62813;51.424;6.762;2022-11-20T13:08:26;21.50;;;15.40;;
9007;SDS011;62813;51.424;6.762;2022-11-20T13:11:09;22.43;;;14.80;;
9007;SDS011;62813;51.424;6.762;2022-11-20T13:16:16;17.23;;;13.63;;
9007;SDS011;62813;51.424;6.762;2022-11-20T13:18:51;20.77;;;15.13;;
9007;SDS011;62813;51.424;6.762;2022-11-20T13:21:35;22.63;;;14.00;;
9007;SDS011;62813;51.424;6.762;2022-11-20T13:27:03;19.17;;;14.77;;
9007;SDS011;62813;51.424;6.762;2022-11-20T13:29:32;22.67;;;16.33;;
9007;SDS011;62813;51.424;6.762;2022-11-20T13:32:04;21.80;;;14.97;;
9007;SDS011;62813;51.424;6.762;2022-11-20T13:34:54;21.53;;;16.17;;
9007;SDS011;62813;51.424;6.762;2022-11-20T13:37:28;23.87;;;17.33;;
9007;SDS011;62813;51.424;6.762;2022-11-20T13:40:05;22.53;;;15.40;;
9007;SDS011;62813;51.424;6.762;2022-11-20T13:42:43;22.37;;;17.03;;
9007;SDS011;62813;51.424;6.762;2022-11-20T13:45:21;23.43;;;16.03;;
9007;SDS011;62813;51.424;6.762;2022-11-20T13:48:19;24.83;;;16.43;;
9007;SDS011;62813;51.424;6.762;2022-11-20T13:51:01;20.43;;;15.23;;
9007;SDS011;62813;51.424;6.762;2022-11-20T13:59:21;21.43;;;15.53;;
9007;SDS011;62813;51.424;6.762;2022-11-20T14:01:52;24.30;;;16.10;;
9007;SDS011;62813;51.424;6.762;2022-11-20T14:04:24;23.27;;;16.83;;
9007;SDS011;62813;51.424;6.762;2022-11-20T14:06:55;20.87;;;16.20;;
9007;SDS011;62813;51.424;6.762;2022-11-20T14:09:30;23.93;;;16.87;;
9007;SDS011;62813;51.424;6.762;2022-11-20T14:11:58;22.70;;;16.40;;
9007;SDS011;62813;51.424;6.762;2022-11-20T14:14:26;21.63;;;16.00;;
9007;SDS011;62813;51.424;6.762;2022-11-20T14:17:06;22.33;;;16.93;;
9007;SDS011;62813;51.424;6.762;2022-11-20T14:19:53;22.00;;;16.73;;
9007;SDS011;62813;51.424;6.762;2022-11-20T14:22:24;27.27;;;17.87;;
9007;SDS011;62813;51.424;6.762;2022-11-20T14:27:42;24.20;;;17.07;;
9007;SDS011;62813;51.424;6.762;2022-11-20T14:30:18;23.07;;;16.70;;
9007;SDS011;62813;51.424;6.762;2022-11-20T14:32:47;22.50;;;16.90;;
9007;SDS011;62813;51.424;6.762;2022-11-20T14:35:17;28.73;;;18.07;;
9007;SDS011;62813;51.424;6.762;2022-11-20T14:37:52;24.80;;;17.53;;
9007;SDS011;62813;51.424;6.762;2022-11-20T14:40:24;22.37;;;17.23;;
9007;SDS011;62813;51.424;6.762;2022-11-20T14:43:23;24.80;;;18.10;;
9007;SDS011;62813;51.424;6.762;2022-11-20T14:45:57;23.43;;;17.43;;
9007;SDS011;62813;51.424;6.762;2022-11-20T14:48:29;23.83;;;17.43;;
9007;SDS011;62813;51.424;6.762;2022-11-20T14:51:01;23.67;;;18.03;;
9007;SDS011;62813;51.424;6.762;2022-11-20T14:53:28;27.17;;;18.23;;
9007;SDS011;62813;51.424;6.762;2022-11-20T14:55:58;24.27;;;18.63;;
9007;SDS011;62813;51.424;6.762;2022-11-20T14:58:28;25.47;;;18.13;;
9007;SDS011;62813;51.424;6.762;2022-11-20T15:00:58;25.47;;;18.80;;
9007;SDS011;62813;51.424;6.762;2022-11-20T15:03:37;24.17;;;17.90;;
9007;SDS011;62813;51.424;6.762;2022-11-20T15:06:06;21.97;;;16.90;;
9007;SDS011;62813;51.424;6.762;2022-11-20T15:08:34;24.73;;;17.60;;
9007;SDS011;62813;51.424;6.762;2022-11-20T15:11:01;24.03;;;17.30;;
9007;SDS011;62813;51.424;6.762;2022-11-20T15:13:31;23.67;;;17.80;;
9007;SDS011;62813;51.424;6.762;2022-11-20T15:16:00;24.20;;;18.87;;
9007;SDS011;62813;51.424;6.762;2022-11-20T15:18:32;25.20;;;17.37;;
9007;SDS011;62813;51.424;6.762;2022-11-20T15:21:05;23.47;;;18.30;;
9007;SDS011;62813;51.424;6.762;2022-11-20T15:23:36;22.63;;;17.83;;
9007;SDS011;62813;51.424;6.762;2022-11-20T15:26:04;27.17;;;19.37;;
9007;SDS011;62813;51.424;6.762;2022-11-20T15:28:41;26.57;;;19.90;;
9007;SDS011;62813;51.424;6.762;2022-11-20T15:31:14;25.70;;;17.97;;
9007;SDS011;62813;51.424;6.762;2022-11-20T15:33:42;27.60;;;19.40;;
9007;SDS011;62813;51.424;6.762;2022-11-20T15:36:09;26.37;;;19.03;;
9007;SDS011;62813;51.424;6.762;2022-11-20T15:38:36;28.60;;;18.47;;
9007;SDS011;62813;51.424;6.762;2022-11-20T15:41:03;26.90;;;17.27;;
9007;SDS011;62813;51.424;6.762;2022-11-20T15:43:30;29.80;;;19.33;;
9007;SDS011;62813;51.424;6.762;2022-11-20T15:45:58;28.27;;;19.90;;
9007;SDS011;62813;51.424;6.762;2022-11-20T15:51:34;25.53;;;18.53;;
9007;SDS011;62813;51.424;6.762;2022-11-20T15:54:01;27.77;;;19.07;;
9007;SDS011;62813;51.424;6.762;2022-11-20T15:56:36;27.20;;;19.07;;
9007;SDS011;62813;51.424;6.762;2022-11-20T15:59:03;26.17;;;18.07;;
9007;SDS011;62813;51.424;6.762;2022-11-20T16:01:30;29.27;;;18.67;;
9007;SDS011;62813;51.424;6.762;2022-11-20T16:03:56;27.07;;;19.07;;
9007;SDS011;62813;51.424;6.762;2022-11-20T16:06:23;26.63;;;18.17;;
9007;SDS011;62813;51.424;6.762;2022-11-20T16:08:49;26.53;;;19.27;;
9007;SDS011;62813;51.424;6.762;2022-11-20T16:11:17;29.13;;;18.80;;
9007;SDS011;62813;51.424;6.762;2022-11-20T16:13:44;29.53;;;19.27;;
9007;SDS011;62813;51.424;6.762;2022-11-20T16:19:00;27.60;;;18.73;;
9007;SDS011;62813;51.424;6.762;2022-11-20T16:21:27;32.77;;;20.40;;
9007;SDS011;62813;51.424;6.762;2022-11-20T16:23:58;29.03;;;19.63;;
9007;SDS011;62813;51.424;6.762;2022-11-20T16:26:26;28.50;;;20.00;;
9007;SDS011;62813;51.424;6.762;2022-11-20T16:28:54;29.00;;;19.67;;
9007;SDS011;62813;51.424;6.762;2022-11-20T16:31:21;33.03;;;19.93;;
9007;SDS011;62813;51.424;6.762;2022-11-20T16:33:49;28.73;;;19.27;;
9007;SDS011;62813;51.424;6.762;2022-11-20T16:36:17;32.83;;;20.57;;
9007;SDS011;62813;51.424;6.762;2022-11-20T16:38:44;29.03;;;19.70;;
9007;SDS011;62813;51.424;6.762;2022-11-20T16:41:11;26.83;;;18.33;;